PWSweather.com
Personal Weather Stations
Station Observations
EA5BZ
Nuevo Altabix, ElcheES

Nuevo AltabixElcheES

Lat: 38.276, Lon: -0.671

Elevation: 0

Station Type: Oregon Scientific WMR-300

http://meteoelche.es

Latest ConditionsUpdated 10:05:00 AM GMT+01:01 Friday, Feb 22, 2019
Currently Today's Max Today's Min Today's Average
Temperature 56.7°F13.7°C 56.7°F13.7°C 44.1°F6.7°C 47.3°F8.5°C
Dew Point 40.0°F4.4°C 43.8°F6.6°C 37.7°F3.2°C 40.2°F4.6°C
Winds 4.0 mph WSW6.4 kmh WSW 10.3 mph -16.6 kmh - - 6.8 mph 10.9 kmh
Wind Gusts 9.0 mph14.5 kmh 14.0 mph22.5 kmh - -
Humidity 53% 84% 53% 77%
Pressure 30.46 in1031.5 mb 30.47 in1031.8 mb 30.45 in1031.2 mb -
Hour Temp Dew Point Humidity Winds Wind Gusts Pressure Precip Precip Rate Daily Precip Total
10:05 AM 56.7°F13.7°C 40.0°F4.4°C 53% 4.0 mph WSW6.4 kmh WSW 9.0 mph14.5 kmh 30.46 in1031.5 mb 0.00 in0.0 mm 0.00 in0.0 mm 0.00 in0.0 mm
10:00 AM 56.4°F13.6°C 40.0°F4.4°C 54% 3.5 mph WSW5.6 kmh WSW 6.0 mph9.7 kmh 30.46 in1031.5 mb 0.00 in0.0 mm 0.00 in0.0 mm 0.00 in0.0 mm
09:55 AM 55.9°F13.3°C 40.3°F4.6°C 56% 4.4 mph SW7.1 kmh SW 8.0 mph12.9 kmh 30.46 in1031.5 mb 0.00 in0.0 mm 0.00 in0.0 mm 0.00 in0.0 mm
09:50 AM 55.1°F12.8°C 39.5°F4.2°C 56% 4.2 mph SW6.8 kmh SW 9.0 mph14.5 kmh 30.46 in1031.5 mb 0.00 in0.0 mm 0.00 in0.0 mm 0.00 in0.0 mm
09:45 AM 54.6°F12.6°C 39.0°F3.9°C 56% 5.2 mph WSW8.4 kmh WSW 9.0 mph14.5 kmh 30.46 in1031.5 mb 0.00 in0.0 mm 0.00 in0.0 mm 0.00 in0.0 mm
09:40 AM 54.1°F12.3°C 38.9°F3.8°C 56% 6.4 mph WSW10.3 kmh WSW 9.0 mph14.5 kmh 30.46 in1031.5 mb 0.00 in0.0 mm 0.00 in0.0 mm 0.00 in0.0 mm
09:35 AM 53.7°F12.1°C 39.0°F3.9°C 57% 7.9 mph WSW12.7 kmh WSW 12.0 mph19.3 kmh 30.46 in1031.5 mb 0.00 in0.0 mm 0.00 in0.0 mm 0.00 in0.0 mm
09:30 AM 53.5°F11.9°C 38.9°F3.8°C 58% 7.2 mph WSW11.6 kmh WSW 11.0 mph17.7 kmh 30.46 in1031.5 mb 0.00 in0.0 mm 0.00 in0.0 mm 0.00 in0.0 mm
09:25 AM 53.2°F11.8°C 38.9°F3.8°C 58% 5.6 mph WSW9.0 kmh WSW 10.0 mph16.1 kmh 30.46 in1031.5 mb 0.00 in0.0 mm 0.00 in0.0 mm 0.00 in0.0 mm
09:20 AM 52.8°F11.6°C 38.9°F3.8°C 59% 4.7 mph WSW7.6 kmh WSW 9.0 mph14.5 kmh 30.46 in1031.5 mb 0.00 in0.0 mm 0.00 in0.0 mm 0.00 in0.0 mm
09:15 AM 52.3°F11.3°C 38.8°F3.8°C 60% 7.5 mph W12.1 kmh W 11.0 mph17.7 kmh 30.46 in1031.5 mb 0.00 in0.0 mm 0.00 in0.0 mm 0.00 in0.0 mm
09:10 AM 51.7°F10.9°C 38.7°F3.7°C 61% 8.9 mph W14.3 kmh W 13.0 mph20.9 kmh 30.46 in1031.5 mb 0.00 in0.0 mm 0.00 in0.0 mm 0.00 in0.0 mm
09:05 AM 51.0°F10.6°C 38.6°F3.7°C 62% 7.1 mph W11.4 kmh W 11.0 mph17.7 kmh 30.46 in1031.5 mb 0.00 in0.0 mm 0.00 in0.0 mm 0.00 in0.0 mm
09:00 AM 50.4°F10.2°C 38.6°F3.7°C 64% 9.3 mph W15.0 kmh W 13.0 mph20.9 kmh 30.46 in1031.5 mb 0.00 in0.0 mm 0.00 in0.0 mm 0.00 in0.0 mm
08:55 AM 49.9°F9.9°C 38.6°F3.7°C 65% 8.5 mph W13.7 kmh W 12.0 mph19.3 kmh 30.46 in1031.5 mb 0.00 in0.0 mm 0.00 in0.0 mm 0.00 in0.0 mm
08:50 AM 49.3°F9.6°C 38.5°F3.6°C 66% 8.9 mph WSW14.3 kmh WSW 12.0 mph19.3 kmh 30.46 in1031.5 mb 0.00 in0.0 mm 0.00 in0.0 mm 0.00 in0.0 mm
08:45 AM 48.9°F9.4°C 38.4°F3.6°C 67% 8.5 mph WSW13.7 kmh WSW 12.0 mph19.3 kmh 30.45 in1031.2 mb 0.00 in0.0 mm 0.00 in0.0 mm 0.00 in0.0 mm
08:40 AM 48.5°F9.2°C 38.3°F3.5°C 68% 9.6 mph W15.4 kmh W 13.0 mph20.9 kmh 30.46 in1031.5 mb 0.00 in0.0 mm 0.00 in0.0 mm 0.00 in0.0 mm
08:35 AM 48.1°F8.9°C 38.2°F3.4°C 68% 10.0 mph W16.1 kmh W 13.0 mph20.9 kmh 30.46 in1031.5 mb 0.00 in0.0 mm 0.00 in0.0 mm 0.00 in0.0 mm
08:30 AM 47.7°F8.7°C 38.2°F3.4°C 69% 8.8 mph W14.2 kmh W 13.0 mph20.9 kmh 30.45 in1031.2 mb 0.00 in0.0 mm 0.00 in0.0 mm 0.00 in0.0 mm
08:25 AM 47.2°F8.4°C 38.1°F3.4°C 71% 7.7 mph WSW12.4 kmh WSW 12.0 mph19.3 kmh 30.46 in1031.5 mb 0.00 in0.0 mm 0.00 in0.0 mm 0.00 in0.0 mm
08:20 AM 46.6°F8.1°C 38.0°F3.3°C 72% 9.3 mph WSW15.0 kmh WSW 13.0 mph20.9 kmh 30.46 in1031.5 mb 0.00 in0.0 mm 0.00 in0.0 mm 0.00 in0.0 mm
08:15 AM 46.2°F7.9°C 38.0°F3.3°C 73% 6.2 mph WSW10.0 kmh WSW 10.0 mph16.1 kmh 30.45 in1031.2 mb 0.00 in0.0 mm 0.00 in0.0 mm 0.00 in0.0 mm
08:10 AM 45.8°F7.7°C 37.8°F3.2°C 73% 7.8 mph WSW12.6 kmh WSW 13.0 mph20.9 kmh 30.45 in1031.2 mb 0.00 in0.0 mm 0.00 in0.0 mm 0.00 in0.0 mm
08:05 AM 45.4°F7.4°C 37.7°F3.2°C 74% 6.9 mph WSW11.1 kmh WSW 10.0 mph16.1 kmh 30.45 in1031.2 mb 0.00 in0.0 mm 0.00 in0.0 mm 0.00 in0.0 mm
08:00 AM 45.1°F7.3°C 37.7°F3.2°C 75% 8.7 mph WSW14.0 kmh WSW 11.0 mph17.7 kmh 30.45 in1031.2 mb 0.00 in0.0 mm 0.00 in0.0 mm 0.00 in0.0 mm
07:55 AM 45.1°F7.3°C 37.7°F3.2°C 75% 7.7 mph WSW12.4 kmh WSW 10.0 mph16.1 kmh 30.46 in1031.5 mb 0.00 in0.0 mm 0.00 in0.0 mm 0.00 in0.0 mm
07:50 AM 45.1°F7.3°C 37.8°F3.2°C 75% 7.1 mph WSW11.4 kmh WSW 11.0 mph17.7 kmh 30.45 in1031.2 mb 0.00 in0.0 mm 0.00 in0.0 mm 0.00 in0.0 mm
07:45 AM 45.1°F7.3°C 37.9°F3.3°C 76% 8.0 mph WSW12.9 kmh WSW 11.0 mph17.7 kmh 30.45 in1031.2 mb 0.00 in0.0 mm 0.00 in0.0 mm 0.00 in0.0 mm
07:40 AM 45.2°F7.3°C 38.0°F3.3°C 76% 9.4 mph W15.1 kmh W 11.0 mph17.7 kmh 30.45 in1031.2 mb 0.00 in0.0 mm 0.00 in0.0 mm 0.00 in0.0 mm
07:35 AM 45.2°F7.3°C 38.0°F3.3°C 76% 7.6 mph W12.2 kmh W 10.0 mph16.1 kmh 30.45 in1031.2 mb 0.00 in0.0 mm 0.00 in0.0 mm 0.00 in0.0 mm
07:30 AM 45.2°F7.3°C 38.0°F3.3°C 76% 8.3 mph W13.4 kmh W 11.0 mph17.7 kmh 30.46 in1031.5 mb 0.00 in0.0 mm 0.00 in0.0 mm 0.00 in0.0 mm
07:25 AM 45.1°F7.3°C 38.1°F3.4°C 76% 8.2 mph W13.2 kmh W 11.0 mph17.7 kmh 30.46 in1031.5 mb 0.00 in0.0 mm 0.00 in0.0 mm 0.00 in0.0 mm
07:20 AM 45.1°F7.3°C 38.2°F3.4°C 77% 8.6 mph WNW13.8 kmh WNW 11.0 mph17.7 kmh 30.46 in1031.5 mb 0.00 in0.0 mm 0.00 in0.0 mm 0.00 in0.0 mm
07:15 AM 45.0°F7.2°C 38.2°F3.4°C 77% 8.7 mph W14.0 kmh W 11.0 mph17.7 kmh 30.45 in1031.2 mb 0.00 in0.0 mm 0.00 in0.0 mm 0.00 in0.0 mm
07:10 AM 44.9°F7.2°C 38.2°F3.4°C 77% 7.6 mph W12.2 kmh W 11.0 mph17.7 kmh 30.45 in1031.2 mb 0.00 in0.0 mm 0.00 in0.0 mm 0.00 in0.0 mm
07:05 AM 44.8°F7.1°C 38.3°F3.5°C 78% 7.1 mph W11.4 kmh W 9.0 mph14.5 kmh 30.45 in1031.2 mb 0.00 in0.0 mm 0.00 in0.0 mm 0.00 in0.0 mm
07:00 AM 44.6°F7.0°C 38.2°F3.4°C 78% 6.0 mph W9.7 kmh W 9.0 mph14.5 kmh 30.45 in1031.2 mb 0.00 in0.0 mm 0.00 in0.0 mm 0.00 in0.0 mm
06:55 AM 44.4°F6.9°C 38.2°F3.4°C 78% 7.4 mph W11.9 kmh W 11.0 mph17.7 kmh 30.45 in1031.2 mb 0.00 in0.0 mm 0.00 in0.0 mm 0.00 in0.0 mm
06:50 AM 44.2°F6.8°C 38.0°F3.3°C 79% 9.2 mph W14.8 kmh W 12.0 mph19.3 kmh 30.45 in1031.2 mb 0.00 in0.0 mm 0.00 in0.0 mm 0.00 in0.0 mm
06:45 AM 44.1°F6.7°C 37.9°F3.3°C 79% 8.9 mph W14.3 kmh W 11.0 mph17.7 kmh 30.46 in1031.5 mb 0.00 in0.0 mm 0.00 in0.0 mm 0.00 in0.0 mm
06:40 AM 44.2°F6.8°C 38.0°F3.3°C 79% 7.9 mph WSW12.7 kmh WSW 10.0 mph16.1 kmh 30.46 in1031.5 mb 0.00 in0.0 mm 0.00 in0.0 mm 0.00 in0.0 mm
06:35 AM 44.3°F6.8°C 38.0°F3.3°C 78% 6.4 mph WSW10.3 kmh WSW 9.0 mph14.5 kmh 30.46 in1031.5 mb 0.00 in0.0 mm 0.00 in0.0 mm 0.00 in0.0 mm
06:30 AM 44.5°F6.9°C 38.1°F3.4°C 78% 7.8 mph W12.6 kmh W 11.0 mph17.7 kmh 30.46 in1031.5 mb 0.00 in0.0 mm 0.00 in0.0 mm 0.00 in0.0 mm
06:25 AM 44.5°F6.9°C 38.2°F3.4°C 78% 9.0 mph WSW14.5 kmh WSW 11.0 mph17.7 kmh 30.46 in1031.5 mb 0.00 in0.0 mm 0.00 in0.0 mm 0.00 in0.0 mm
06:20 AM 44.6°F7.0°C 38.4°F3.6°C 79% 8.4 mph WSW13.5 kmh WSW 11.0 mph17.7 kmh 30.46 in1031.5 mb 0.00 in0.0 mm 0.00 in0.0 mm 0.00 in0.0 mm
06:15 AM 44.7°F7.1°C 38.5°F3.6°C 79% 8.3 mph WSW13.4 kmh WSW 11.0 mph17.7 kmh 30.46 in1031.5 mb 0.00 in0.0 mm 0.00 in0.0 mm 0.00 in0.0 mm
06:10 AM 44.9°F7.2°C 38.6°F3.7°C 79% 5.6 mph WSW9.0 kmh WSW 8.0 mph12.9 kmh 30.46 in1031.5 mb 0.00 in0.0 mm 0.00 in0.0 mm 0.00 in0.0 mm
06:05 AM 45.1°F7.3°C 38.7°F3.7°C 78% 6.2 mph WSW10.0 kmh WSW 8.0 mph12.9 kmh 30.46 in1031.5 mb 0.00 in0.0 mm 0.00 in0.0 mm 0.00 in0.0 mm
06:00 AM 45.2°F7.3°C 38.8°F3.8°C 78% 6.3 mph WSW10.1 kmh WSW 8.0 mph12.9 kmh 30.46 in1031.5 mb 0.00 in0.0 mm 0.00 in0.0 mm 0.00 in0.0 mm
05:55 AM 45.3°F7.4°C 38.8°F3.8°C 78% 6.7 mph WSW10.8 kmh WSW 9.0 mph14.5 kmh 30.46 in1031.5 mb 0.00 in0.0 mm 0.00 in0.0 mm 0.00 in0.0 mm
05:50 AM 45.4°F7.4°C 38.9°F3.8°C 78% 5.5 mph WSW8.9 kmh WSW 8.0 mph12.9 kmh 30.46 in1031.5 mb 0.00 in0.0 mm 0.00 in0.0 mm 0.00 in0.0 mm
05:45 AM 45.5°F7.5°C 39.0°F3.9°C 78% 4.6 mph WSW7.4 kmh WSW 7.0 mph11.3 kmh 30.46 in1031.5 mb 0.00 in0.0 mm 0.00 in0.0 mm 0.00 in0.0 mm
05:40 AM 45.6°F7.6°C 39.1°F3.9°C 78% 6.2 mph WSW10.0 kmh WSW 10.0 mph16.1 kmh 30.46 in1031.5 mb 0.00 in0.0 mm 0.00 in0.0 mm 0.00 in0.0 mm
05:35 AM 45.8°F7.7°C 39.2°F4.0°C 77% 8.9 mph WSW14.3 kmh WSW 11.0 mph17.7 kmh 30.46 in1031.5 mb 0.00 in0.0 mm 0.00 in0.0 mm 0.00 in0.0 mm
05:30 AM 46.1°F7.8°C 39.4°F4.1°C 77% 10.0 mph WSW16.1 kmh WSW 14.0 mph22.5 kmh 30.46 in1031.5 mb 0.00 in0.0 mm 0.00 in0.0 mm 0.00 in0.0 mm
05:25 AM 46.0°F7.8°C 39.5°F4.2°C 78% 9.9 mph WSW15.9 kmh WSW 13.0 mph20.9 kmh 30.46 in1031.5 mb 0.00 in0.0 mm 0.00 in0.0 mm 0.00 in0.0 mm
05:20 AM 45.9°F7.7°C 39.4°F4.1°C 78% 10.3 mph WSW16.6 kmh WSW 14.0 mph22.5 kmh 30.46 in1031.5 mb 0.00 in0.0 mm 0.00 in0.0 mm 0.00 in0.0 mm
05:15 AM 46.0°F7.8°C 39.5°F4.2°C 78% 9.4 mph WSW15.1 kmh WSW 13.0 mph20.9 kmh 30.46 in1031.5 mb 0.00 in0.0 mm 0.00 in0.0 mm 0.00 in0.0 mm
05:10 AM 46.1°F7.8°C 39.6°F4.2°C 78% 8.9 mph WSW14.3 kmh WSW 12.0 mph19.3 kmh 30.46 in1031.5 mb 0.00 in0.0 mm 0.00 in0.0 mm 0.00 in0.0 mm
05:05 AM 46.1°F7.8°C 39.7°F4.3°C 78% 9.6 mph W15.4 kmh W 13.0 mph20.9 kmh 30.46 in1031.5 mb 0.00 in0.0 mm 0.00 in0.0 mm 0.00 in0.0 mm
05:00 AM 45.9°F7.7°C 39.7°F4.3°C 79% 9.3 mph W15.0 kmh W 13.0 mph20.9 kmh 30.46 in1031.5 mb 0.00 in0.0 mm 0.00 in0.0 mm 0.00 in0.0 mm
04:55 AM 45.8°F7.7°C 39.7°F4.3°C 79% 9.5 mph W15.3 kmh W 13.0 mph20.9 kmh 30.46 in1031.5 mb 0.00 in0.0 mm 0.00 in0.0 mm 0.00 in0.0 mm
04:50 AM 45.9°F7.7°C 39.8°F4.3°C 79% 8.3 mph W13.4 kmh W 11.0 mph17.7 kmh 30.46 in1031.5 mb 0.00 in0.0 mm 0.00 in0.0 mm 0.00 in0.0 mm
04:45 AM 45.9°F7.7°C 39.9°F4.4°C 79% 7.8 mph W12.6 kmh W 10.0 mph16.1 kmh 30.46 in1031.5 mb 0.00 in0.0 mm 0.00 in0.0 mm 0.00 in0.0 mm
04:40 AM 45.8°F7.7°C 39.9°F4.4°C 80% 7.1 mph W11.4 kmh W 9.0 mph14.5 kmh 30.46 in1031.5 mb 0.00 in0.0 mm 0.00 in0.0 mm 0.00 in0.0 mm
04:35 AM 45.7°F7.6°C 40.0°F4.4°C 80% 6.2 mph W10.0 kmh W 9.0 mph14.5 kmh 30.46 in1031.5 mb 0.00 in0.0 mm 0.00 in0.0 mm 0.00 in0.0 mm
04:30 AM 45.6°F7.6°C 40.1°F4.5°C 81% 6.8 mph W10.9 kmh W 9.0 mph14.5 kmh 30.46 in1031.5 mb 0.00 in0.0 mm 0.00 in0.0 mm 0.00 in0.0 mm
04:25 AM 45.5°F7.5°C 40.1°F4.5°C 81% 5.8 mph W9.3 kmh W 8.0 mph12.9 kmh 30.46 in1031.5 mb 0.00 in0.0 mm 0.00 in0.0 mm 0.00 in0.0 mm
04:20 AM 45.5°F7.5°C 40.1°F4.5°C 81% 7.4 mph W11.9 kmh W 9.0 mph14.5 kmh 30.46 in1031.5 mb 0.00 in0.0 mm 0.00 in0.0 mm 0.00 in0.0 mm
04:15 AM 45.6°F7.6°C 40.2°F4.6°C 81% 7.5 mph W12.1 kmh W 9.0 mph14.5 kmh 30.46 in1031.5 mb 0.00 in0.0 mm 0.00 in0.0 mm 0.00 in0.0 mm
04:10 AM 45.9°F7.7°C 40.3°F4.6°C 81% 8.1 mph W13.0 kmh W 10.0 mph16.1 kmh 30.46 in1031.5 mb 0.00 in0.0 mm 0.00 in0.0 mm 0.00 in0.0 mm
04:05 AM 46.0°F7.8°C 40.5°F4.7°C 81% 7.5 mph W12.1 kmh W 10.0 mph16.1 kmh 30.46 in1031.5 mb 0.00 in0.0 mm 0.00 in0.0 mm 0.00 in0.0 mm
04:00 AM 46.2°F7.9°C 40.6°F4.8°C 81% 6.6 mph W10.6 kmh W 8.0 mph12.9 kmh 30.45 in1031.2 mb 0.00 in0.0 mm 0.00 in0.0 mm 0.00 in0.0 mm
03:55 AM 46.2°F7.9°C 40.7°F4.8°C 81% 5.2 mph W8.4 kmh W 8.0 mph12.9 kmh 30.46 in1031.5 mb 0.00 in0.0 mm 0.00 in0.0 mm 0.00 in0.0 mm
03:50 AM 46.2°F7.9°C 40.8°F4.9°C 81% 6.5 mph W10.5 kmh W 9.0 mph14.5 kmh 30.46 in1031.5 mb 0.00 in0.0 mm 0.00 in0.0 mm 0.00 in0.0 mm
03:45 AM 46.3°F7.9°C 40.9°F4.9°C 81% 5.6 mph W9.0 kmh W 8.0 mph12.9 kmh 30.46 in1031.5 mb 0.00 in0.0 mm 0.00 in0.0 mm 0.00 in0.0 mm
03:40 AM 46.4°F8.0°C 40.9°F4.9°C 81% 5.9 mph W9.5 kmh W 8.0 mph12.9 kmh 30.46 in1031.5 mb 0.00 in0.0 mm 0.00 in0.0 mm 0.00 in0.0 mm
03:35 AM 46.5°F8.1°C 40.9°F4.9°C 81% 6.7 mph W10.8 kmh W 9.0 mph14.5 kmh 30.46 in1031.5 mb 0.00 in0.0 mm 0.00 in0.0 mm 0.00 in0.0 mm
03:30 AM 46.7°F8.2°C 41.1°F5.1°C 81% 6.6 mph W10.6 kmh W 9.0 mph14.5 kmh 30.46 in1031.5 mb 0.00 in0.0 mm 0.00 in0.0 mm 0.00 in0.0 mm
03:25 AM 46.7°F8.2°C 41.2°F5.1°C 81% 6.6 mph W10.6 kmh W 10.0 mph16.1 kmh 30.46 in1031.5 mb 0.00 in0.0 mm 0.00 in0.0 mm 0.00 in0.0 mm
03:20 AM 46.6°F8.1°C 41.4°F5.2°C 82% 7.2 mph W11.6 kmh W 9.0 mph14.5 kmh 30.46 in1031.5 mb 0.00 in0.0 mm 0.00 in0.0 mm 0.00 in0.0 mm
03:15 AM 46.3°F7.9°C 41.6°F5.3°C 83% 6.9 mph W11.1 kmh W 10.0 mph16.1 kmh 30.46 in1031.5 mb 0.00 in0.0 mm 0.00 in0.0 mm 0.00 in0.0 mm
03:10 AM 46.2°F7.9°C 41.5°F5.3°C 84% 6.7 mph W10.8 kmh W 9.0 mph14.5 kmh 30.46 in1031.5 mb 0.00 in0.0 mm 0.00 in0.0 mm 0.00 in0.0 mm
03:05 AM 46.2°F7.9°C 41.5°F5.3°C 84% 5.9 mph WSW9.5 kmh WSW 8.0 mph12.9 kmh 30.46 in1031.5 mb 0.00 in0.0 mm 0.00 in0.0 mm 0.00 in0.0 mm
03:00 AM 46.4°F8.0°C 41.6°F5.3°C 83% 5.5 mph W8.9 kmh W 7.0 mph11.3 kmh 30.47 in1031.8 mb 0.00 in0.0 mm 0.00 in0.0 mm 0.00 in0.0 mm
02:55 AM 46.5°F8.1°C 41.8°F5.4°C 84% 3.2 mph W5.1 kmh W 6.0 mph9.7 kmh 30.47 in1031.8 mb 0.00 in0.0 mm 0.00 in0.0 mm 0.00 in0.0 mm
02:50 AM 46.5°F8.1°C 41.7°F5.4°C 83% 4.0 mph W6.4 kmh W 7.0 mph11.3 kmh 30.46 in1031.5 mb 0.00 in0.0 mm 0.00 in0.0 mm 0.00 in0.0 mm
02:45 AM 46.6°F8.1°C 41.7°F5.4°C 83% 5.7 mph W9.2 kmh W 7.0 mph11.3 kmh 30.46 in1031.5 mb 0.00 in0.0 mm 0.00 in0.0 mm 0.00 in0.0 mm
02:40 AM 46.8°F8.2°C 41.9°F5.5°C 83% 6.0 mph WSW9.7 kmh WSW 7.0 mph11.3 kmh 30.47 in1031.8 mb 0.00 in0.0 mm 0.00 in0.0 mm 0.00 in0.0 mm
02:35 AM 46.9°F8.3°C 42.0°F5.6°C 83% 6.4 mph WSW10.3 kmh WSW 8.0 mph12.9 kmh 30.47 in1031.8 mb 0.00 in0.0 mm 0.00 in0.0 mm 0.00 in0.0 mm
02:30 AM 47.1°F8.4°C 42.2°F5.7°C 83% 3.3 mph WSW5.3 kmh WSW 6.0 mph9.7 kmh 30.47 in1031.8 mb 0.00 in0.0 mm 0.00 in0.0 mm 0.00 in0.0 mm
02:25 AM 47.1°F8.4°C 42.2°F5.7°C 83% 2.3 mph W3.7 kmh W 4.0 mph6.4 kmh 30.47 in1031.8 mb 0.00 in0.0 mm 0.00 in0.0 mm 0.00 in0.0 mm
02:20 AM 47.2°F8.4°C 42.2°F5.7°C 83% 3.8 mph W6.1 kmh W 6.0 mph9.7 kmh 30.47 in1031.8 mb 0.00 in0.0 mm 0.00 in0.0 mm 0.00 in0.0 mm
02:15 AM 47.3°F8.5°C 42.2°F5.7°C 83% 3.5 mph W5.6 kmh W 7.0 mph11.3 kmh 30.47 in1031.8 mb 0.00 in0.0 mm 0.00 in0.0 mm 0.00 in0.0 mm
02:10 AM 47.3°F8.5°C 42.3°F5.7°C 83% 2.9 mph W4.7 kmh W 5.0 mph8.0 kmh 30.47 in1031.8 mb 0.00 in0.0 mm 0.00 in0.0 mm 0.00 in0.0 mm
02:05 AM 47.4°F8.6°C 42.4°F5.8°C 83% 3.9 mph W6.3 kmh W 8.0 mph12.9 kmh 30.47 in1031.8 mb 0.00 in0.0 mm 0.00 in0.0 mm 0.00 in0.0 mm
02:00 AM 47.5°F8.6°C 42.4°F5.8°C 82% 5.1 mph W8.2 kmh W 7.0 mph11.3 kmh 30.47 in1031.8 mb 0.00 in0.0 mm 0.00 in0.0 mm 0.00 in0.0 mm
01:55 AM 47.6°F8.7°C 42.5°F5.8°C 82% 4.5 mph W7.2 kmh W 7.0 mph11.3 kmh 30.47 in1031.8 mb 0.00 in0.0 mm 0.00 in0.0 mm 0.00 in0.0 mm
01:50 AM 47.6°F8.7°C 42.5°F5.8°C 82% 5.8 mph W9.3 kmh W 8.0 mph12.9 kmh 30.47 in1031.8 mb 0.00 in0.0 mm 0.00 in0.0 mm 0.00 in0.0 mm
01:45 AM 47.8°F8.8°C 42.7°F5.9°C 82% 6.8 mph W10.9 kmh W 10.0 mph16.1 kmh 30.47 in1031.8 mb 0.00 in0.0 mm 0.00 in0.0 mm 0.00 in0.0 mm
01:40 AM 47.8°F8.8°C 42.8°F6.0°C 83% 6.5 mph W10.5 kmh W 9.0 mph14.5 kmh 30.47 in1031.8 mb 0.00 in0.0 mm 0.00 in0.0 mm 0.00 in0.0 mm
01:35 AM 47.8°F8.8°C 42.9°F6.1°C 83% 6.4 mph W10.3 kmh W 9.0 mph14.5 kmh 30.47 in1031.8 mb 0.00 in0.0 mm 0.00 in0.0 mm 0.00 in0.0 mm
01:30 AM 47.9°F8.8°C 42.9°F6.1°C 83% 6.7 mph W10.8 kmh W 8.0 mph12.9 kmh 30.47 in1031.8 mb 0.00 in0.0 mm 0.00 in0.0 mm 0.00 in0.0 mm
01:25 AM 47.9°F8.8°C 43.0°F6.1°C 83% 6.6 mph W10.6 kmh W 9.0 mph14.5 kmh 30.47 in1031.8 mb 0.00 in0.0 mm 0.00 in0.0 mm 0.00 in0.0 mm
01:20 AM 48.0°F8.9°C 43.0°F6.1°C 83% 7.1 mph W11.4 kmh W 10.0 mph16.1 kmh 30.47 in1031.8 mb 0.00 in0.0 mm 0.00 in0.0 mm 0.00 in0.0 mm
01:15 AM 48.2°F9.0°C 43.0°F6.1°C 82% 6.4 mph W10.3 kmh W 9.0 mph14.5 kmh 30.47 in1031.8 mb 0.00 in0.0 mm 0.00 in0.0 mm 0.00 in0.0 mm
01:10 AM 48.4°F9.1°C 43.1°F6.2°C 82% 6.8 mph W10.9 kmh W 8.0 mph12.9 kmh 30.47 in1031.8 mb 0.00 in0.0 mm 0.00 in0.0 mm 0.00 in0.0 mm
01:05 AM 48.6°F9.2°C 43.3°F6.3°C 82% 6.9 mph W11.1 kmh W 9.0 mph14.5 kmh 30.47 in1031.8 mb 0.00 in0.0 mm 0.00 in0.0 mm 0.00 in0.0 mm
01:00 AM 48.6°F9.2°C 43.4°F6.3°C 82% 6.3 mph W10.1 kmh W 8.0 mph12.9 kmh 30.47 in1031.8 mb 0.00 in0.0 mm 0.00 in0.0 mm 0.00 in0.0 mm
12:55 AM 48.6°F9.2°C 43.4°F6.3°C 82% 6.9 mph W11.1 kmh W 9.0 mph14.5 kmh 30.47 in1031.8 mb 0.00 in0.0 mm 0.00 in0.0 mm 0.00 in0.0 mm
12:50 AM 48.6°F9.2°C 43.4°F6.3°C 82% 5.0 mph WNW8.0 kmh WNW 8.0 mph12.9 kmh 30.47 in1031.8 mb 0.00 in0.0 mm 0.00 in0.0 mm 0.00 in0.0 mm
12:45 AM 48.5°F9.2°C 43.4°F6.3°C 82% 5.3 mph WNW8.5 kmh WNW 8.0 mph12.9 kmh 30.47 in1031.8 mb 0.00 in0.0 mm 0.00 in0.0 mm 0.00 in0.0 mm
12:40 AM 48.5°F9.2°C 43.3°F6.3°C 82% 5.8 mph WNW9.3 kmh WNW 8.0 mph12.9 kmh 30.47 in1031.8 mb 0.00 in0.0 mm 0.00 in0.0 mm 0.00 in0.0 mm
12:35 AM 48.5°F9.2°C 43.4°F6.3°C 82% 5.7 mph WNW9.2 kmh WNW 8.0 mph12.9 kmh 30.47 in1031.8 mb 0.00 in0.0 mm 0.00 in0.0 mm 0.00 in0.0 mm
12:30 AM 48.4°F9.1°C 43.4°F6.3°C 83% 5.8 mph WNW9.3 kmh WNW 9.0 mph14.5 kmh 30.47 in1031.8 mb 0.00 in0.0 mm 0.00 in0.0 mm 0.00 in0.0 mm
12:25 AM 48.5°F9.2°C 43.3°F6.3°C 82% 6.3 mph W10.1 kmh W 8.0 mph12.9 kmh 30.47 in1031.8 mb 0.00 in0.0 mm 0.00 in0.0 mm 0.00 in0.0 mm
12:20 AM 48.6°F9.2°C 43.4°F6.3°C 82% 6.8 mph W10.9 kmh W 9.0 mph14.5 kmh 30.47 in1031.8 mb 0.00 in0.0 mm 0.00 in0.0 mm 0.00 in0.0 mm
12:15 AM 48.7°F9.3°C 43.5°F6.4°C 82% 6.9 mph W11.1 kmh W 8.0 mph12.9 kmh 30.47 in1031.8 mb 0.00 in0.0 mm 0.00 in0.0 mm 0.00 in0.0 mm
12:10 AM 48.8°F9.3°C 43.6°F6.4°C 82% 6.5 mph W10.5 kmh W 9.0 mph14.5 kmh 30.47 in1031.8 mb 0.00 in0.0 mm 0.00 in0.0 mm 0.00 in0.0 mm
12:05 AM 48.9°F9.4°C 43.7°F6.5°C 82% 5.4 mph W8.7 kmh W 8.0 mph12.9 kmh 30.47 in1031.8 mb 0.00 in0.0 mm 0.00 in0.0 mm 0.00 in0.0 mm
12:00 AM 49.0°F9.4°C 43.8°F6.6°C 82% 5.9 mph W9.5 kmh W 8.0 mph12.9 kmh 30.47 in1031.8 mb 0.00 in0.0 mm 0.00 in0.0 mm 0.00 in0.0 mm